sensor_id;sensor_type;location;lat;lon;timestamp;P1;durP1;ratioP1;P2;durP2;ratioP2
71176;SDS011;58877;51.992;4.504;2023-04-23T00:00:07;35.63;;;35.15;;
71176;SDS011;58877;51.992;4.504;2023-04-23T00:02:36;34.62;;;34.20;;
71176;SDS011;58877;51.992;4.504;2023-04-23T00:05:04;35.30;;;34.75;;
71176;SDS011;58877;51.992;4.504;2023-04-23T00:07:31;33.58;;;33.24;;
71176;SDS011;58877;51.992;4.504;2023-04-23T00:09:58;33.99;;;33.65;;
71176;SDS011;58877;51.992;4.504;2023-04-23T00:12:26;34.55;;;34.06;;
71176;SDS011;58877;51.992;4.504;2023-04-23T00:14:54;33.68;;;33.44;;
71176;SDS011;58877;51.992;4.504;2023-04-23T00:17:20;34.06;;;33.61;;
71176;SDS011;58877;51.992;4.504;2023-04-23T00:19:46;33.64;;;33.29;;
71176;SDS011;58877;51.992;4.504;2023-04-23T00:22:12;34.38;;;33.93;;
71176;SDS011;58877;51.992;4.504;2023-04-23T00:24:46;34.92;;;34.33;;
71176;SDS011;58877;51.992;4.504;2023-04-23T00:27:12;34.51;;;34.08;;
71176;SDS011;58877;51.992;4.504;2023-04-23T00:29:38;34.81;;;34.38;;
71176;SDS011;58877;51.992;4.504;2023-04-23T00:32:04;34.68;;;34.24;;
71176;SDS011;58877;51.992;4.504;2023-04-23T00:34:30;33.92;;;33.63;;
71176;SDS011;58877;51.992;4.504;2023-04-23T00:36:56;34.45;;;34.25;;
71176;SDS011;58877;51.992;4.504;2023-04-23T00:39:21;34.61;;;34.10;;
71176;SDS011;58877;51.992;4.504;2023-04-23T00:41:48;34.62;;;34.25;;
71176;SDS011;58877;51.992;4.504;2023-04-23T00:44:14;34.08;;;33.80;;
71176;SDS011;58877;51.992;4.504;2023-04-23T00:46:43;33.53;;;33.12;;
71176;SDS011;58877;51.992;4.504;2023-04-23T00:49:10;34.96;;;34.43;;
71176;SDS011;58877;51.992;4.504;2023-04-23T00:51:38;33.04;;;32.61;;
71176;SDS011;58877;51.992;4.504;2023-04-23T00:54:03;33.75;;;33.43;;
71176;SDS011;58877;51.992;4.504;2023-04-23T00:56:29;34.70;;;34.33;;
71176;SDS011;58877;51.992;4.504;2023-04-23T00:58:55;35.78;;;35.20;;
71176;SDS011;58877;51.992;4.504;2023-04-23T01:01:21;34.84;;;34.45;;
71176;SDS011;58877;51.992;4.504;2023-04-23T01:03:48;33.89;;;33.45;;
71176;SDS011;58877;51.992;4.504;2023-04-23T01:06:17;34.40;;;34.19;;
71176;SDS011;58877;51.992;4.504;2023-04-23T01:08:43;33.86;;;33.47;;
71176;SDS011;58877;51.992;4.504;2023-04-23T01:11:09;32.56;;;32.40;;
71176;SDS011;58877;51.992;4.504;2023-04-23T01:13:41;32.81;;;32.51;;
71176;SDS011;58877;51.992;4.504;2023-04-23T01:16:08;34.25;;;33.84;;
71176;SDS011;58877;51.992;4.504;2023-04-23T01:18:35;34.67;;;34.15;;
71176;SDS011;58877;51.992;4.504;2023-04-23T01:21:02;31.53;;;31.32;;
71176;SDS011;58877;51.992;4.504;2023-04-23T01:23:29;33.35;;;32.95;;
71176;SDS011;58877;51.992;4.504;2023-04-23T01:25:55;33.96;;;33.40;;
71176;SDS011;58877;51.992;4.504;2023-04-23T01:28:22;32.33;;;31.76;;
71176;SDS011;58877;51.992;4.504;2023-04-23T01:30:48;31.71;;;31.43;;
71176;SDS011;58877;51.992;4.504;2023-04-23T01:33:17;31.96;;;31.54;;
71176;SDS011;58877;51.992;4.504;2023-04-23T01:35:46;31.04;;;30.90;;
71176;SDS011;58877;51.992;4.504;2023-04-23T01:38:13;32.14;;;31.71;;
71176;SDS011;58877;51.992;4.504;2023-04-23T01:40:40;31.45;;;31.12;;
71176;SDS011;58877;51.992;4.504;2023-04-23T01:43:06;31.60;;;31.16;;
71176;SDS011;58877;51.992;4.504;2023-04-23T01:45:36;31.99;;;31.50;;
71176;SDS011;58877;51.992;4.504;2023-04-23T01:48:01;30.96;;;30.50;;
71176;SDS011;58877;51.992;4.504;2023-04-23T01:50:32;30.68;;;30.16;;
71176;SDS011;58877;51.992;4.504;2023-04-23T01:53:04;28.67;;;28.43;;
71176;SDS011;58877;51.992;4.504;2023-04-23T01:55:30;29.62;;;29.20;;
71176;SDS011;58877;51.992;4.504;2023-04-23T01:57:56;28.57;;;28.39;;
71176;SDS011;58877;51.992;4.504;2023-04-23T02:00:22;28.52;;;28.30;;
71176;SDS011;58877;51.992;4.504;2023-04-23T02:02:48;27.65;;;27.39;;
71176;SDS011;58877;51.992;4.504;2023-04-23T02:05:17;26.71;;;26.45;;
71176;SDS011;58877;51.992;4.504;2023-04-23T02:07:47;26.06;;;25.96;;
71176;SDS011;58877;51.992;4.504;2023-04-23T02:10:15;26.14;;;26.01;;
71176;SDS011;58877;51.992;4.504;2023-04-23T02:12:41;24.90;;;24.71;;
71176;SDS011;58877;51.992;4.504;2023-04-23T02:15:08;24.17;;;24.04;;
71176;SDS011;58877;51.992;4.504;2023-04-23T02:17:35;23.41;;;23.25;;
71176;SDS011;58877;51.992;4.504;2023-04-23T02:20:01;23.18;;;22.89;;
71176;SDS011;58877;51.992;4.504;2023-04-23T02:22:27;23.25;;;22.94;;
71176;SDS011;58877;51.992;4.504;2023-04-23T02:24:56;22.37;;;22.10;;
71176;SDS011;58877;51.992;4.504;2023-04-23T02:27:22;22.76;;;22.60;;
71176;SDS011;58877;51.992;4.504;2023-04-23T02:29:48;22.15;;;21.93;;
71176;SDS011;58877;51.992;4.504;2023-04-23T02:32:16;21.66;;;21.53;;
71176;SDS011;58877;51.992;4.504;2023-04-23T02:34:42;22.13;;;22.00;;
71176;SDS011;58877;51.992;4.504;2023-04-23T02:37:08;22.12;;;22.08;;
71176;SDS011;58877;51.992;4.504;2023-04-23T02:39:34;21.18;;;21.09;;
71176;SDS011;58877;51.992;4.504;2023-04-23T02:42:00;21.44;;;21.25;;
71176;SDS011;58877;51.992;4.504;2023-04-23T02:44:31;21.66;;;21.59;;
71176;SDS011;58877;51.992;4.504;2023-04-23T02:47:00;22.36;;;22.28;;
71176;SDS011;58877;51.992;4.504;2023-04-23T02:49:26;22.46;;;22.13;;
71176;SDS011;58877;51.992;4.504;2023-04-23T02:51:51;21.49;;;21.25;;
71176;SDS011;58877;51.992;4.504;2023-04-23T02:54:17;20.79;;;20.77;;
71176;SDS011;58877;51.992;4.504;2023-04-23T02:56:43;21.56;;;21.54;;
71176;SDS011;58877;51.992;4.504;2023-04-23T02:59:08;21.12;;;21.07;;
71176;SDS011;58877;51.992;4.504;2023-04-23T03:01:34;21.14;;;21.00;;
71176;SDS011;58877;51.992;4.504;2023-04-23T03:04:00;20.84;;;20.72;;
71176;SDS011;58877;51.992;4.504;2023-04-23T03:06:26;20.02;;;20.01;;
71176;SDS011;58877;51.992;4.504;2023-04-23T03:08:51;19.73;;;19.65;;
71176;SDS011;58877;51.992;4.504;2023-04-23T03:11:17;19.95;;;19.91;;
71176;SDS011;58877;51.992;4.504;2023-04-23T03:13:42;20.10;;;19.97;;
71176;SDS011;58877;51.992;4.504;2023-04-23T03:16:08;20.55;;;20.45;;
71176;SDS011;58877;51.992;4.504;2023-04-23T03:18:34;20.19;;;20.12;;
71176;SDS011;58877;51.992;4.504;2023-04-23T03:20:59;20.97;;;20.90;;
71176;SDS011;58877;51.992;4.504;2023-04-23T03:23:25;21.13;;;20.96;;
71176;SDS011;58877;51.992;4.504;2023-04-23T03:25:50;20.57;;;20.34;;
71176;SDS011;58877;51.992;4.504;2023-04-23T03:28:16;20.38;;;20.17;;
71176;SDS011;58877;51.992;4.504;2023-04-23T03:30:41;19.75;;;19.75;;
71176;SDS011;58877;51.992;4.504;2023-04-23T03:33:07;19.54;;;19.49;;
71176;SDS011;58877;51.992;4.504;2023-04-23T03:35:33;19.92;;;19.88;;
71176;SDS011;58877;51.992;4.504;2023-04-23T03:37:59;19.43;;;19.42;;
71176;SDS011;58877;51.992;4.504;2023-04-23T03:40:24;19.90;;;19.84;;
71176;SDS011;58877;51.992;4.504;2023-04-23T03:42:50;19.96;;;19.85;;
71176;SDS011;58877;51.992;4.504;2023-04-23T03:45:16;19.80;;;19.80;;
71176;SDS011;58877;51.992;4.504;2023-04-23T03:47:41;19.89;;;19.88;;
71176;SDS011;58877;51.992;4.504;2023-04-23T03:50:08;19.84;;;19.78;;
71176;SDS011;58877;51.992;4.504;2023-04-23T03:52:34;20.41;;;20.38;;
71176;SDS011;58877;51.992;4.504;2023-04-23T03:55:00;20.56;;;20.56;;
71176;SDS011;58877;51.992;4.504;2023-04-23T03:57:26;19.98;;;19.97;;
71176;SDS011;58877;51.992;4.504;2023-04-23T03:59:52;19.33;;;19.27;;
71176;SDS011;58877;51.992;4.504;2023-04-23T04:02:18;20.55;;;20.42;;
71176;SDS011;58877;51.992;4.504;2023-04-23T04:04:44;20.81;;;20.73;;
71176;SDS011;58877;51.992;4.504;2023-04-23T04:07:10;19.91;;;19.90;;
71176;SDS011;58877;51.992;4.504;2023-04-23T04:09:37;20.09;;;19.94;;
71176;SDS011;58877;51.992;4.504;2023-04-23T04:12:03;19.58;;;19.48;;
71176;SDS011;58877;51.992;4.504;2023-04-23T04:14:30;19.68;;;19.59;;
71176;SDS011;58877;51.992;4.504;2023-04-23T04:16:56;20.09;;;20.02;;
71176;SDS011;58877;51.992;4.504;2023-04-23T04:19:22;19.19;;;19.16;;
71176;SDS011;58877;51.992;4.504;2023-04-23T04:21:47;20.08;;;19.92;;
71176;SDS011;58877;51.992;4.504;2023-04-23T04:24:15;19.81;;;19.68;;
71176;SDS011;58877;51.992;4.504;2023-04-23T04:26:42;18.68;;;18.56;;
71176;SDS011;58877;51.992;4.504;2023-04-23T04:29:08;19.68;;;19.62;;
71176;SDS011;58877;51.992;4.504;2023-04-23T04:31:34;19.17;;;19.15;;
71176;SDS011;58877;51.992;4.504;2023-04-23T04:34:00;19.77;;;19.76;;
71176;SDS011;58877;51.992;4.504;2023-04-23T04:36:26;19.98;;;19.95;;
71176;SDS011;58877;51.992;4.504;2023-04-23T04:38:52;19.79;;;19.79;;
71176;SDS011;58877;51.992;4.504;2023-04-23T04:41:25;21.67;;;21.47;;
71176;SDS011;58877;51.992;4.504;2023-04-23T04:43:52;20.63;;;20.50;;
71176;SDS011;58877;51.992;4.504;2023-04-23T04:46:19;20.28;;;20.28;;
71176;SDS011;58877;51.992;4.504;2023-04-23T04:48:48;19.41;;;19.32;;
71176;SDS011;58877;51.992;4.504;2023-04-23T04:51:13;20.27;;;20.21;;
71176;SDS011;58877;51.992;4.504;2023-04-23T04:53:40;19.20;;;19.00;;
71176;SDS011;58877;51.992;4.504;2023-04-23T04:56:06;18.82;;;18.39;;
71176;SDS011;58877;51.992;4.504;2023-04-23T04:58:32;19.18;;;19.18;;
71176;SDS011;58877;51.992;4.504;2023-04-23T05:00:57;18.24;;;18.24;;
71176;SDS011;58877;51.992;4.504;2023-04-23T05:03:23;19.14;;;19.07;;
71176;SDS011;58877;51.992;4.504;2023-04-23T05:05:50;18.76;;;18.64;;
71176;SDS011;58877;51.992;4.504;2023-04-23T05:08:16;18.14;;;18.11;;
71176;SDS011;58877;51.992;4.504;2023-04-23T05:10:43;19.23;;;18.95;;
71176;SDS011;58877;51.992;4.504;2023-04-23T05:13:09;18.02;;;17.94;;
71176;SDS011;58877;51.992;4.504;2023-04-23T05:15:34;19.03;;;18.95;;
71176;SDS011;58877;51.992;4.504;2023-04-23T05:18:01;18.52;;;18.46;;
71176;SDS011;58877;51.992;4.504;2023-04-23T05:20:28;18.78;;;18.50;;
71176;SDS011;58877;51.992;4.504;2023-04-23T05:22:54;19.33;;;19.19;;
71176;SDS011;58877;51.992;4.504;2023-04-23T05:25:20;18.88;;;18.85;;
71176;SDS011;58877;51.992;4.504;2023-04-23T05:27:45;18.23;;;17.95;;
71176;SDS011;58877;51.992;4.504;2023-04-23T05:30:11;18.88;;;18.44;;
71176;SDS011;58877;51.992;4.504;2023-04-23T05:32:36;18.65;;;18.54;;
71176;SDS011;58877;51.992;4.504;2023-04-23T05:35:03;18.51;;;18.36;;
71176;SDS011;58877;51.992;4.504;2023-04-23T05:37:29;18.78;;;18.52;;
71176;SDS011;58877;51.992;4.504;2023-04-23T05:39:54;18.37;;;18.31;;
71176;SDS011;58877;51.992;4.504;2023-04-23T05:42:21;19.06;;;18.96;;
71176;SDS011;58877;51.992;4.504;2023-04-23T05:44:47;18.79;;;18.72;;
71176;SDS011;58877;51.992;4.504;2023-04-23T05:47:12;18.80;;;18.64;;
71176;SDS011;58877;51.992;4.504;2023-04-23T05:49:38;18.74;;;18.50;;
71176;SDS011;58877;51.992;4.504;2023-04-23T05:52:04;17.92;;;17.88;;
71176;SDS011;58877;51.992;4.504;2023-04-23T05:54:30;17.09;;;17.02;;
71176;SDS011;58877;51.992;4.504;2023-04-23T05:56:55;17.79;;;17.55;;
71176;SDS011;58877;51.992;4.504;2023-04-23T05:59:21;16.69;;;16.67;;
71176;SDS011;58877;51.992;4.504;2023-04-23T06:01:47;16.04;;;15.87;;
71176;SDS011;58877;51.992;4.504;2023-04-23T06:04:14;15.44;;;15.33;;
71176;SDS011;58877;51.992;4.504;2023-04-23T06:06:41;14.84;;;14.78;;
71176;SDS011;58877;51.992;4.504;2023-04-23T06:09:07;14.49;;;14.42;;
71176;SDS011;58877;51.992;4.504;2023-04-23T06:11:32;14.48;;;14.33;;
71176;SDS011;58877;51.992;4.504;2023-04-23T06:14:00;14.37;;;14.34;;
71176;SDS011;58877;51.992;4.504;2023-04-23T06:16:29;14.17;;;14.17;;
71176;SDS011;58877;51.992;4.504;2023-04-23T06:18:55;13.97;;;13.93;;
71176;SDS011;58877;51.992;4.504;2023-04-23T06:21:21;14.03;;;13.93;;
71176;SDS011;58877;51.992;4.504;2023-04-23T06:23:47;12.91;;;12.85;;
71176;SDS011;58877;51.992;4.504;2023-04-23T06:26:13;13.21;;;13.19;;
71176;SDS011;58877;51.992;4.504;2023-04-23T06:28:40;12.72;;;12.64;;
71176;SDS011;58877;51.992;4.504;2023-04-23T06:31:07;12.65;;;12.64;;
71176;SDS011;58877;51.992;4.504;2023-04-23T06:33:33;12.36;;;12.36;;
71176;SDS011;58877;51.992;4.504;2023-04-23T06:36:00;11.74;;;11.74;;
71176;SDS011;58877;51.992;4.504;2023-04-23T06:38:25;11.16;;;11.11;;
71176;SDS011;58877;51.992;4.504;2023-04-23T06:40:51;11.24;;;11.18;;
71176;SDS011;58877;51.992;4.504;2023-04-23T06:43:17;11.62;;;11.62;;
71176;SDS011;58877;51.992;4.504;2023-04-23T06:45:42;11.81;;;11.81;;
71176;SDS011;58877;51.992;4.504;2023-04-23T06:48:08;11.18;;;11.18;;
71176;SDS011;58877;51.992;4.504;2023-04-23T06:50:34;11.03;;;11.03;;
71176;SDS011;58877;51.992;4.504;2023-04-23T06:52:59;11.06;;;11.04;;
71176;SDS011;58877;51.992;4.504;2023-04-23T06:55:27;10.51;;;10.51;;
71176;SDS011;58877;51.992;4.504;2023-04-23T06:57:53;10.70;;;10.70;;
71176;SDS011;58877;51.992;4.504;2023-04-23T07:00:19;10.32;;;10.31;;
71176;SDS011;58877;51.992;4.504;2023-04-23T07:02:46;9.72;;;9.70;;
71176;SDS011;58877;51.992;4.504;2023-04-23T07:05:12;10.11;;;10.09;;
71176;SDS011;58877;51.992;4.504;2023-04-23T07:07:37;10.37;;;10.35;;
71176;SDS011;58877;51.992;4.504;2023-04-23T07:10:05;10.21;;;10.16;;
71176;SDS011;58877;51.992;4.504;2023-04-23T07:12:31;10.03;;;10.00;;
71176;SDS011;58877;51.992;4.504;2023-04-23T07:14:57;9.80;;;9.72;;
71176;SDS011;58877;51.992;4.504;2023-04-23T07:17:22;10.17;;;10.09;;
71176;SDS011;58877;51.992;4.504;2023-04-23T07:19:48;9.23;;;9.22;;
71176;SDS011;58877;51.992;4.504;2023-04-23T07:22:17;9.26;;;9.26;;
71176;SDS011;58877;51.992;4.504;2023-04-23T07:24:46;8.46;;;8.46;;
71176;SDS011;58877;51.992;4.504;2023-04-23T07:27:11;9.15;;;9.15;;
71176;SDS011;58877;51.992;4.504;2023-04-23T07:29:37;8.69;;;8.64;;
71176;SDS011;58877;51.992;4.504;2023-04-23T07:32:03;7.65;;;7.62;;
71176;SDS011;58877;51.992;4.504;2023-04-23T07:34:31;7.69;;;7.69;;
71176;SDS011;58877;51.992;4.504;2023-04-23T07:37:03;7.46;;;7.45;;
71176;SDS011;58877;51.992;4.504;2023-04-23T07:39:29;7.36;;;7.34;;
71176;SDS011;58877;51.992;4.504;2023-04-23T07:41:56;6.83;;;6.83;;
71176;SDS011;58877;51.992;4.504;2023-04-23T07:44:23;6.57;;;6.57;;
71176;SDS011;58877;51.992;4.504;2023-04-23T07:46:49;6.81;;;6.81;;
71176;SDS011;58877;51.992;4.504;2023-04-23T07:49:18;6.54;;;6.54;;
71176;SDS011;58877;51.992;4.504;2023-04-23T07:51:44;6.57;;;6.55;;
71176;SDS011;58877;51.992;4.504;2023-04-23T07:54:10;6.52;;;6.51;;
71176;SDS011;58877;51.992;4.504;2023-04-23T07:56:36;6.21;;;6.19;;
71176;SDS011;58877;51.992;4.504;2023-04-23T07:59:02;6.14;;;6.14;;
71176;SDS011;58877;51.992;4.504;2023-04-23T08:01:31;5.84;;;5.84;;
71176;SDS011;58877;51.992;4.504;2023-04-23T08:04:00;6.09;;;6.07;;
71176;SDS011;58877;51.992;4.504;2023-04-23T08:06:27;6.03;;;5.99;;
71176;SDS011;58877;51.992;4.504;2023-04-23T08:08:55;5.84;;;5.82;;
71176;SDS011;58877;51.992;4.504;2023-04-23T08:11:22;5.76;;;5.74;;
71176;SDS011;58877;51.992;4.504;2023-04-23T08:13:49;5.39;;;5.37;;
71176;SDS011;58877;51.992;4.504;2023-04-23T08:16:15;5.56;;;5.54;;
71176;SDS011;58877;51.992;4.504;2023-04-23T08:18:41;5.77;;;5.73;;
71176;SDS011;58877;51.992;4.504;2023-04-23T08:21:09;5.99;;;5.91;;
71176;SDS011;58877;51.992;4.504;2023-04-23T08:23:37;5.55;;;5.50;;
71176;SDS011;58877;51.992;4.504;2023-04-23T08:26:23;5.83;;;5.75;;
71176;SDS011;58877;51.992;4.504;2023-04-23T08:28:50;5.27;;;5.08;;
71176;SDS011;58877;51.992;4.504;2023-04-23T08:31:16;4.81;;;4.69;;
71176;SDS011;58877;51.992;4.504;2023-04-23T08:33:45;5.18;;;5.11;;
71176;SDS011;58877;51.992;4.504;2023-04-23T08:36:11;5.07;;;5.02;;
71176;SDS011;58877;51.992;4.504;2023-04-23T08:38:40;4.42;;;4.39;;
71176;SDS011;58877;51.992;4.504;2023-04-23T08:41:09;4.51;;;4.44;;
71176;SDS011;58877;51.992;4.504;2023-04-23T08:43:41;5.04;;;4.98;;
71176;SDS011;58877;51.992;4.504;2023-04-23T08:46:11;4.89;;;4.83;;
71176;SDS011;58877;51.992;4.504;2023-04-23T08:48:43;5.34;;;5.29;;
71176;SDS011;58877;51.992;4.504;2023-04-23T08:51:09;5.20;;;5.18;;
71176;SDS011;58877;51.992;4.504;2023-04-23T08:53:42;5.08;;;5.03;;
71176;SDS011;58877;51.992;4.504;2023-04-23T08:56:11;5.62;;;5.53;;
71176;SDS011;58877;51.992;4.504;2023-04-23T08:58:38;5.03;;;5.00;;
71176;SDS011;58877;51.992;4.504;2023-04-23T09:01:05;4.67;;;4.65;;
71176;SDS011;58877;51.992;4.504;2023-04-23T09:03:34;4.27;;;4.22;;
71176;SDS011;58877;51.992;4.504;2023-04-23T09:06:02;4.41;;;4.33;;
71176;SDS011;58877;51.992;4.504;2023-04-23T09:08:33;4.33;;;4.23;;
71176;SDS011;58877;51.992;4.504;2023-04-23T09:11:02;4.67;;;4.55;;
71176;SDS011;58877;51.992;4.504;2023-04-23T09:13:51;3.89;;;3.77;;
71176;SDS011;58877;51.992;4.504;2023-04-23T09:16:31;4.39;;;4.22;;
71176;SDS011;58877;51.992;4.504;2023-04-23T09:18:57;3.97;;;3.78;;
71176;SDS011;58877;51.992;4.504;2023-04-23T09:21:29;4.11;;;3.88;;
71176;SDS011;58877;51.992;4.504;2023-04-23T09:23:55;4.13;;;3.89;;
71176;SDS011;58877;51.992;4.504;2023-04-23T09:26:24;3.79;;;3.57;;
71176;SDS011;58877;51.992;4.504;2023-04-23T09:28:56;3.97;;;3.81;;
71176;SDS011;58877;51.992;4.504;2023-04-23T09:31:27;4.06;;;3.90;;
71176;SDS011;58877;51.992;4.504;2023-04-23T09:33:55;3.96;;;3.77;;
71176;SDS011;58877;51.992;4.504;2023-04-23T09:36:23;4.34;;;4.23;;
71176;SDS011;58877;51.992;4.504;2023-04-23T09:38:55;4.63;;;4.57;;
71176;SDS011;58877;51.992;4.504;2023-04-23T09:44:18;5.16;;;5.10;;
71176;SDS011;58877;51.992;4.504;2023-04-23T09:46:47;4.26;;;4.21;;
71176;SDS011;58877;51.992;4.504;2023-04-23T09:49:19;4.54;;;4.53;;
71176;SDS011;58877;51.992;4.504;2023-04-23T09:51:47;4.72;;;4.68;;
71176;SDS011;58877;51.992;4.504;2023-04-23T09:54:14;4.67;;;4.56;;
71176;SDS011;58877;51.992;4.504;2023-04-23T09:56:49;3.68;;;3.58;;
71176;SDS011;58877;51.992;4.504;2023-04-23T09:59:25;3.65;;;3.53;;
71176;SDS011;58877;51.992;4.504;2023-04-23T10:01:56;4.09;;;3.98;;
71176;SDS011;58877;51.992;4.504;2023-04-23T10:04:27;4.47;;;4.35;;
71176;SDS011;58877;51.992;4.504;2023-04-23T10:06:54;4.55;;;4.42;;
71176;SDS011;58877;51.992;4.504;2023-04-23T10:11:59;4.04;;;3.98;;
71176;SDS011;58877;51.992;4.504;2023-04-23T10:15:10;4.20;;;4.15;;
71176;SDS011;58877;51.992;4.504;2023-04-23T10:18:01;3.93;;;3.87;;
71176;SDS011;58877;51.992;4.504;2023-04-23T10:20:56;3.62;;;3.56;;
71176;SDS011;58877;51.992;4.504;2023-04-23T10:24:00;3.14;;;3.02;;
71176;SDS011;58877;51.992;4.504;2023-04-23T10:26:58;3.10;;;2.96;;
71176;SDS011;58877;51.992;4.504;2023-04-23T10:30:07;3.02;;;2.93;;
71176;SDS011;58877;51.992;4.504;2023-04-23T10:33:39;3.12;;;3.06;;
71176;SDS011;58877;51.992;4.504;2023-04-23T10:36:30;3.64;;;3.55;;
71176;SDS011;58877;51.992;4.504;2023-04-23T10:39:33;3.54;;;3.50;;
71176;SDS011;58877;51.992;4.504;2023-04-23T10:42:07;3.04;;;2.97;;
71176;SDS011;58877;51.992;4.504;2023-04-23T10:44:37;3.11;;;2.98;;
71176;SDS011;58877;51.992;4.504;2023-04-23T10:47:13;2.89;;;2.87;;
71176;SDS011;58877;51.992;4.504;2023-04-23T10:49:40;2.61;;;2.60;;
71176;SDS011;58877;51.992;4.504;2023-04-23T10:52:14;3.05;;;3.05;;
71176;SDS011;58877;51.992;4.504;2023-04-23T10:54:43;3.04;;;2.99;;
71176;SDS011;58877;51.992;4.504;2023-04-23T10:57:25;3.07;;;2.91;;
71176;SDS011;58877;51.992;4.504;2023-04-23T10:59:52;2.89;;;2.72;;
71176;SDS011;58877;51.992;4.504;2023-04-23T11:02:19;3.10;;;2.94;;
71176;SDS011;58877;51.992;4.504;2023-04-23T11:04:58;3.05;;;3.00;;
71176;SDS011;58877;51.992;4.504;2023-04-23T11:07:33;3.44;;;3.30;;
71176;SDS011;58877;51.992;4.504;2023-04-23T11:10:05;3.07;;;2.91;;
71176;SDS011;58877;51.992;4.504;2023-04-23T11:12:37;2.37;;;2.30;;
71176;SDS011;58877;51.992;4.504;2023-04-23T11:15:10;2.39;;;2.28;;
71176;SDS011;58877;51.992;4.504;2023-04-23T11:20:29;2.45;;;2.26;;
71176;SDS011;58877;51.992;4.504;2023-04-23T11:22:55;2.04;;;1.84;;
71176;SDS011;58877;51.992;4.504;2023-04-23T11:25:23;2.21;;;1.92;;
71176;SDS011;58877;51.992;4.504;2023-04-23T11:27:54;2.37;;;2.01;;
71176;SDS011;58877;51.992;4.504;2023-04-23T11:30:25;2.54;;;2.10;;
71176;SDS011;58877;51.992;4.504;2023-04-23T11:32:56;2.41;;;1.97;;
71176;SDS011;58877;51.992;4.504;2023-04-23T11:35:32;2.91;;;2.42;;
71176;SDS011;58877;51.992;4.504;2023-04-23T11:38:07;2.61;;;2.10;;
71176;SDS011;58877;51.992;4.504;2023-04-23T11:40:37;2.82;;;2.30;;
71176;SDS011;58877;51.992;4.504;2023-04-23T11:43:07;2.75;;;2.30;;
71176;SDS011;58877;51.992;4.504;2023-04-23T11:45:38;2.30;;;2.01;;
71176;SDS011;58877;51.992;4.504;2023-04-23T11:48:15;2.38;;;2.09;;
71176;SDS011;58877;51.992;4.504;2023-04-23T11:50:42;2.40;;;2.08;;
71176;SDS011;58877;51.992;4.504;2023-04-23T11:53:09;2.41;;;2.09;;
71176;SDS011;58877;51.992;4.504;2023-04-23T11:55:36;2.46;;;2.18;;
71176;SDS011;58877;51.992;4.504;2023-04-23T11:58:05;2.13;;;1.90;;
71176;SDS011;58877;51.992;4.504;2023-04-23T12:00:31;2.88;;;2.55;;
71176;SDS011;58877;51.992;4.504;2023-04-23T12:03:01;2.63;;;2.29;;
71176;SDS011;58877;51.992;4.504;2023-04-23T12:05:30;2.76;;;2.43;;
71176;SDS011;58877;51.992;4.504;2023-04-23T12:11:11;2.04;;;1.79;;
71176;SDS011;58877;51.992;4.504;2023-04-23T12:13:38;1.96;;;1.73;;
71176;SDS011;58877;51.992;4.504;2023-04-23T12:19:02;2.43;;;2.11;;
71176;SDS011;58877;51.992;4.504;2023-04-23T12:21:32;2.22;;;1.88;;
71176;SDS011;58877;51.992;4.504;2023-04-23T12:23:58;2.41;;;2.02;;
71176;SDS011;58877;51.992;4.504;2023-04-23T12:26:35;2.24;;;1.90;;
71176;SDS011;58877;51.992;4.504;2023-04-23T12:29:07;1.96;;;1.69;;
71176;SDS011;58877;51.992;4.504;2023-04-23T12:31:36;1.86;;;1.62;;
71176;SDS011;58877;51.992;4.504;2023-04-23T12:34:09;2.06;;;1.79;;
71176;SDS011;58877;51.992;4.504;2023-04-23T12:37:11;2.28;;;1.95;;
71176;SDS011;58877;51.992;4.504;2023-04-23T12:40:18;1.84;;;1.61;;
71176;SDS011;58877;51.992;4.504;2023-04-23T12:42:46;2.18;;;1.93;;
71176;SDS011;58877;51.992;4.504;2023-04-23T12:45:24;2.27;;;2.02;;
71176;SDS011;58877;51.992;4.504;2023-04-23T12:47:50;2.28;;;2.04;;
71176;SDS011;58877;51.992;4.504;2023-04-23T12:50:18;1.78;;;1.60;;
71176;SDS011;58877;51.992;4.504;2023-04-23T12:52:50;1.76;;;1.59;;
71176;SDS011;58877;51.992;4.504;2023-04-23T12:55:16;2.21;;;1.99;;
71176;SDS011;58877;51.992;4.504;2023-04-23T12:57:50;2.39;;;2.09;;
71176;SDS011;58877;51.992;4.504;2023-04-23T13:00:30;2.45;;;2.12;;
71176;SDS011;58877;51.992;4.504;2023-04-23T13:03:07;1.92;;;1.67;;
71176;SDS011;58877;51.992;4.504;2023-04-23T13:05:49;1.71;;;1.48;;
71176;SDS011;58877;51.992;4.504;2023-04-23T13:08:18;2.12;;;1.85;;
71176;SDS011;58877;51.992;4.504;2023-04-23T13:10:53;1.94;;;1.75;;
71176;SDS011;58877;51.992;4.504;2023-04-23T13:13:22;2.10;;;1.88;;
71176;SDS011;58877;51.992;4.504;2023-04-23T13:15:49;3.18;;;2.81;;
71176;SDS011;58877;51.992;4.504;2023-04-23T13:18:18;3.10;;;2.83;;
71176;SDS011;58877;51.992;4.504;2023-04-23T13:20:44;2.74;;;2.71;;
71176;SDS011;58877;51.992;4.504;2023-04-23T13:23:21;2.99;;;2.84;;
71176;SDS011;58877;51.992;4.504;2023-04-23T13:25:50;2.85;;;2.74;;
71176;SDS011;58877;51.992;4.504;2023-04-23T13:28:28;2.71;;;2.60;;
71176;SDS011;58877;51.992;4.504;2023-04-23T13:31:00;2.59;;;2.49;;
71176;SDS011;58877;51.992;4.504;2023-04-23T13:33:40;2.26;;;2.19;;
71176;SDS011;58877;51.992;4.504;2023-04-23T13:36:12;1.91;;;1.84;;
71176;SDS011;58877;51.992;4.504;2023-04-23T13:38:46;1.96;;;1.84;;
71176;SDS011;58877;51.992;4.504;2023-04-23T13:41:23;1.76;;;1.61;;
71176;SDS011;58877;51.992;4.504;2023-04-23T13:43:58;3.05;;;2.74;;
71176;SDS011;58877;51.992;4.504;2023-04-23T13:46:43;2.79;;;2.35;;
71176;SDS011;58877;51.992;4.504;2023-04-23T13:49:18;3.00;;;2.52;;
71176;SDS011;58877;51.992;4.504;2023-04-23T13:51:46;2.45;;;2.06;;
71176;SDS011;58877;51.992;4.504;2023-04-23T13:54:18;2.40;;;2.04;;
71176;SDS011;58877;51.992;4.504;2023-04-23T13:56:47;2.73;;;2.31;;
71176;SDS011;58877;51.992;4.504;2023-04-23T13:59:13;3.00;;;2.52;;
71176;SDS011;58877;51.992;4.504;2023-04-23T14:01:49;3.16;;;2.66;;
71176;SDS011;58877;51.992;4.504;2023-04-23T14:04:17;2.99;;;2.59;;
71176;SDS011;58877;51.992;4.504;2023-04-23T14:06:48;2.83;;;2.58;;
71176;SDS011;58877;51.992;4.504;2023-04-23T14:09:17;2.81;;;2.54;;
71176;SDS011;58877;51.992;4.504;2023-04-23T14:12:01;2.67;;;2.44;;
71176;SDS011;58877;51.992;4.504;2023-04-23T14:14:28;2.74;;;2.51;;
71176;SDS011;58877;51.992;4.504;2023-04-23T14:16:55;2.98;;;2.72;;
71176;SDS011;58877;51.992;4.504;2023-04-23T14:19:21;2.70;;;2.47;;
71176;SDS011;58877;51.992;4.504;2023-04-23T14:21:47;3.10;;;2.86;;
71176;SDS011;58877;51.992;4.504;2023-04-23T14:24:22;2.51;;;2.33;;
71176;SDS011;58877;51.992;4.504;2023-04-23T14:26:53;3.01;;;2.82;;
71176;SDS011;58877;51.992;4.504;2023-04-23T14:29:35;3.41;;;3.11;;
71176;SDS011;58877;51.992;4.504;2023-04-23T14:32:05;2.97;;;2.71;;
71176;SDS011;58877;51.992;4.504;2023-04-23T14:34:34;2.86;;;2.60;;
71176;SDS011;58877;51.992;4.504;2023-04-23T14:37:03;2.86;;;2.63;;
71176;SDS011;58877;51.992;4.504;2023-04-23T14:39:29;2.64;;;2.44;;
71176;SDS011;58877;51.992;4.504;2023-04-23T14:41:55;2.45;;;2.28;;
71176;SDS011;58877;51.992;4.504;2023-04-23T14:44:21;2.72;;;2.54;;
71176;SDS011;58877;51.992;4.504;2023-04-23T14:46:53;2.91;;;2.63;;
71176;SDS011;58877;51.992;4.504;2023-04-23T14:49:19;2.11;;;1.95;;
71176;SDS011;58877;51.992;4.504;2023-04-23T14:51:46;2.69;;;2.44;;
71176;SDS011;58877;51.992;4.504;2023-04-23T14:54:15;2.23;;;2.02;;
71176;SDS011;58877;51.992;4.504;2023-04-23T14:56:41;1.63;;;1.49;;
71176;SDS011;58877;51.992;4.504;2023-04-23T14:59:07;1.72;;;1.57;;